Time;durP1;ratioP1;P1;durP2;ratioP2;P2;SDS_P1;SDS_P2;PMS_P1;PMS_P2;Temp;Humidity;BMP_temperature;BMP_pressure;BME280_temperature;BME280_humidity;BME280_pressure;Samples;Min_cycle;Max_cycle;Signal;HPM_P1;HPM_P2
2020/12/07 00:00:07;;;;;;;13.20;5.65;;;6.10;1.00;;;;;;5085725;28;20421;-73
2020/12/07 00:02:33;;;;;;;15.90;6.50;;;6.00;1.00;;;;;;5095511;28;20277;-74
2020/12/07 00:04:59;;;;;;;16.00;6.33;;;6.00;1.00;;;;;;5095291;28;20449;-73
2020/12/07 00:07:25;;;;;;;17.90;6.57;;;6.10;1.00;;;;;;5095402;28;20397;-73
2020/12/07 00:10:06;;;;;;;11.57;6.03;;;6.00;1.00;;;;;;5086406;28;20892;-76
2020/12/07 00:12:42;;;;;;;14.38;5.38;;;6.00;1.00;;;;;;5074605;28;20483;-76
2020/12/07 00:15:41;;;;;;;11.68;5.32;;;5.90;1.00;;;;;;5075870;28;20163;-76
2020/12/07 00:18:17;;;;;;;11.77;5.90;;;6.00;1.00;;;;;;5075752;28;20163;-76
2020/12/07 00:21:08;;;;;;;8.60;4.80;;;5.90;1.00;;;;;;5091226;28;20942;-75
2020/12/07 00:23:35;;;;;;;10.10;4.70;;;5.90;1.00;;;;;;5095783;28;20416;-73
2020/12/07 00:26:02;;;;;;;9.73;4.23;;;5.90;1.00;;;;;;5095175;28;20856;-74
2020/12/07 00:28:28;;;;;;;10.60;5.03;;;5.90;1.00;;;;;;5076665;28;20454;-74
2020/12/07 00:30:54;;;;;;;8.87;4.73;;;5.90;1.00;;;;;;5076027;28;20263;-73
2020/12/07 00:33:19;;;;;;;15.30;5.63;;;5.90;1.00;;;;;;5094355;28;20173;-74
2020/12/07 00:35:45;;;;;;;9.67;5.40;;;;;;;;;;5075935;28;20446;-74
2020/12/07 00:38:11;;;;;;;7.77;3.70;;;5.90;1.00;;;;;;5074651;28;20221;-73
2020/12/07 00:40:37;;;;;;;10.10;4.50;;;5.90;1.00;;;;;;5074914;28;20397;-74
2020/12/07 00:43:05;;;;;;;10.57;4.80;;;5.90;1.00;;;;;;5081218;28;20736;-73
2020/12/07 00:45:31;;;;;;;20.63;4.50;;;5.90;1.00;;;;;;5093966;28;20190;-73
2020/12/07 00:47:57;;;;;;;7.37;4.47;;;5.90;1.00;;;;;;5093995;28;20490;-73
2020/12/07 00:50:22;;;;;;;10.77;4.57;;;5.90;1.00;;;;;;5094542;28;20158;-73
2020/12/07 00:52:48;;;;;;;10.00;4.97;;;5.90;1.00;;;;;;5083126;28;20198;-74
2020/12/07 00:55:23;;;;;;;9.57;4.33;;;5.90;1.00;;;;;;5075467;28;20634;-73
2020/12/07 00:57:53;;;;;;;14.15;5.05;;;5.90;1.00;;;;;;5087948;28;20253;-74
2020/12/07 01:00:19;;;;;;;5.43;3.70;;;5.90;1.00;;;;;;5094548;28;20587;-73
2020/12/07 01:02:45;;;;;;;7.90;4.20;;;5.80;1.00;;;;;;5094142;28;20269;-73
2020/12/07 01:05:10;;;;;;;5.47;4.20;;;5.80;1.00;;;;;;5081966;28;20499;-73
2020/12/07 01:07:36;;;;;;;6.33;4.30;;;5.80;1.00;;;;;;5092303;28;20166;-73
2020/12/07 01:10:03;;;;;;;8.53;4.60;;;5.80;1.00;;;;;;5094612;28;20155;-73
2020/12/07 01:12:29;;;;;;;4.73;3.43;;;5.70;1.00;;;;;;5094330;28;20593;-74
2020/12/07 01:14:59;;;;;;;9.90;3.90;;;5.70;1.00;;;;;;5094326;28;20404;-74
2020/12/07 01:17:25;;;;;;;10.93;4.40;;;5.80;1.00;;;;;;5091658;28;20171;-73
2020/12/07 01:20:05;;;;;;;7.37;4.03;;;5.80;1.00;;;;;;5084665;28;20428;-74
2020/12/07 01:22:31;;;;;;;7.05;4.20;;;5.80;1.00;;;;;;5073412;28;20649;-74
2020/12/07 01:25:11;;;;;;;7.53;4.33;;;5.80;1.00;;;;;;5075040;28;20178;-76
2020/12/07 01:27:41;;;;;;;8.47;4.60;;;5.80;1.00;;;;;;5074260;28;20175;-75
2020/12/07 01:30:11;;;;;;;6.07;3.58;;;5.90;1.00;;;;;;5074465;28;20436;-75
2020/12/07 01:32:47;;;;;;;10.00;5.23;;;5.90;1.00;;;;;;5082613;28;20641;-75
2020/12/07 01:35:17;;;;;;;10.23;5.17;;;5.90;1.00;;;;;;5094166;28;20959;-75
2020/12/07 01:37:43;;;;;;;11.10;4.45;;;5.90;1.00;;;;;;5080624;28;20934;-76
2020/12/07 01:40:08;;;;;;;5.17;3.33;;;5.90;1.00;;;;;;5073922;28;20210;-75
2020/12/07 01:42:34;;;;;;;6.90;4.10;;;5.90;1.00;;;;;;5073718;28;20194;-75
2020/12/07 01:45:11;;;;;;;9.67;4.53;;;5.90;1.00;;;;;;5073879;28;20166;-76
2020/12/07 01:47:41;;;;;;;9.30;4.50;;;5.90;1.00;;;;;;5080880;28;20186;-76
2020/12/07 01:50:17;;;;;;;10.10;4.07;;;5.90;1.00;;;;;;5080449;28;20487;-76
2020/12/07 01:53:23;;;;;;;10.20;5.00;;;5.80;1.00;;;;;;5077415;28;20246;-76
2020/12/07 01:55:53;;;;;;;7.70;4.07;;;5.80;1.00;;;;;;5087186;28;20205;-75
2020/12/07 01:58:19;;;;;;;8.23;3.83;;;5.80;1.00;;;;;;5074242;28;20175;-76
2020/12/07 02:00:47;;;;;;;5.63;4.00;;;5.70;1.00;;;;;;5073583;28;20389;-76
2020/12/07 02:03:23;;;;;;;5.80;3.63;;;5.70;1.00;;;;;;5073770;28;20534;-76
2020/12/07 02:06:11;;;;;;;7.23;3.77;;;5.70;1.00;;;;;;5073415;28;20405;-77
2020/12/07 02:09:11;;;;;;;7.90;3.90;;;5.80;1.00;;;;;;5073764;28;20381;-76
2020/12/07 02:11:41;;;;;;;6.83;4.10;;;5.70;1.00;;;;;;5073421;28;20817;-76
2020/12/07 02:14:11;;;;;;;7.82;3.30;;;5.70;1.00;;;;;;5090420;28;20416;-76
2020/12/07 02:16:41;;;;;;;6.80;3.87;;;5.70;1.00;;;;;;5092180;28;20545;-75
2020/12/07 02:19:11;;;;;;;9.37;4.27;;;5.70;1.00;;;;;;5082895;28;20436;-77
2020/12/07 02:21:47;;;;;;;8.68;4.72;;;5.70;1.00;;;;;;5084407;28;20870;-76
2020/12/07 02:24:13;;;;;;;8.98;4.00;;;5.70;1.00;;;;;;5093597;28;20514;-75
2020/12/07 02:26:41;;;;;;;11.40;4.57;;;5.70;1.00;;;;;;5093640;28;20166;-76
2020/12/07 02:29:11;;;;;;;6.78;4.45;;;5.70;1.00;;;;;;5078744;28;20167;-76
2020/12/07 02:31:41;;;;;;;8.83;4.73;;;5.70;1.00;;;;;;5076851;28;20610;-76
2020/12/07 02:34:11;;;;;;;10.05;4.65;;;5.80;1.00;;;;;;5076517;28;20916;-76
2020/12/07 02:36:59;;;;;;;13.27;5.27;;;5.80;1.00;;;;;;5077116;28;20182;-75
2020/12/07 02:39:32;;;;;;;16.13;5.40;;;5.80;1.00;;;;;;5076984;28;20405;-74
2020/12/07 02:42:17;;;;;;;9.70;5.30;;;5.80;1.00;;;;;;5087847;28;20539;-75
2020/12/07 02:44:42;;;;;;;18.67;4.90;;;5.90;1.00;;;;;;5097118;28;20166;-76
2020/12/07 02:47:11;;;;;;;9.60;3.83;;;5.90;1.00;;;;;;5097239;28;20216;-75
2020/12/07 02:49:41;;;;;;;9.23;4.90;;;5.90;1.00;;;;;;5077198;28;20193;-75
2020/12/07 02:52:11;;;;;;;10.90;4.53;;;5.80;1.00;;;;;;5076563;28;20178;-75
2020/12/07 02:54:40;;;;;;;11.40;5.32;;;5.80;1.00;;;;;;5077068;28;20598;-74
2020/12/07 02:57:41;;;;;;;9.20;4.13;;;5.80;1.00;;;;;;5089548;28;20202;-76
2020/12/07 03:00:11;;;;;;;9.05;4.90;;;5.90;1.00;;;;;;5096921;28;20381;-76
2020/12/07 03:02:41;;;;;;;16.10;5.47;;;5.90;1.00;;;;;;5095651;28;20190;-76
2020/12/07 03:05:11;;;;;;;11.90;5.38;;;5.90;1.00;;;;;;5076033;28;20417;-77
2020/12/07 03:07:41;;;;;;;10.53;5.20;;;5.90;1.00;;;;;;5076398;28;20163;-76
2020/12/07 03:10:07;;;;;;;12.67;5.53;;;6.00;1.00;;;;;;5077026;28;20902;-73
2020/12/07 03:12:32;;;;;;;13.47;5.60;;;6.00;1.00;;;;;;5076995;28;20421;-73
2020/12/07 03:14:58;;;;;;;12.80;5.70;;;6.00;1.00;;;;;;5076088;28;20671;-73
2020/12/07 03:17:24;;;;;;;18.40;6.33;;;6.00;1.00;;;;;;5076053;28;20171;-73
2020/12/07 03:19:59;;;;;;;11.40;5.20;;;6.00;1.00;;;;;;5084486;28;20177;-74
2020/12/07 03:22:25;;;;;;;13.87;5.63;;;6.00;1.00;;;;;;5093998;28;20704;-74
2020/12/07 03:25:05;;;;;;;15.30;6.17;;;6.00;1.00;;;;;;5096511;28;20500;-75
2020/12/07 03:27:31;;;;;;;15.20;6.30;;;6.00;1.00;;;;;;5096286;28;20162;-74
2020/12/07 03:29:57;;;;;;;18.33;6.40;;;6.00;1.00;;;;;;5077198;28;20182;-74
2020/12/07 03:32:22;;;;;;;12.10;5.40;;;5.90;1.00;;;;;;5075600;28;20622;-73
2020/12/07 03:34:49;;;;;;;15.87;7.03;;;5.90;1.00;;;;;;5081865;28;20168;-74
2020/12/07 03:37:23;;;;;;;10.32;5.10;;;5.90;1.00;;;;;;5075883;28;20167;-74
2020/12/07 03:39:53;;;;;;;11.70;5.97;;;5.90;1.00;;;;;;5075821;28;20647;-74
2020/12/07 03:42:19;;;;;;;12.63;5.93;;;6.00;1.00;;;;;;5075151;28;20532;-73
2020/12/07 03:44:44;;;;;;;14.80;7.10;;;5.90;1.00;;;;;;5075783;28;20481;-74
2020/12/07 03:47:10;;;;;;;12.73;5.30;;;6.00;1.00;;;;;;5075644;28;20155;-73
2020/12/07 03:49:41;;;;;;;13.43;6.00;;;6.00;1.00;;;;;;5075984;28;20189;-74
2020/12/07 03:52:11;;;;;;;11.60;6.10;;;6.00;1.00;;;;;;5075412;28;20179;-73
2020/12/07 03:54:41;;;;;;;16.07;6.57;;;6.00;1.00;;;;;;5075322;28;20926;-74
2020/12/07 03:57:07;;;;;;;14.80;6.25;;;5.90;1.00;;;;;;5075633;28;20920;-74
2020/12/07 03:59:35;;;;;;;12.87;5.97;;;5.90;1.00;;;;;;5075523;28;20167;-73
2020/12/07 04:02:05;;;;;;;13.97;5.50;;;5.90;1.00;;;;;;5075172;28;20681;-73
2020/12/07 04:04:43;;;;;;;12.02;6.13;;;5.90;1.00;;;;;;5081606;28;20899;-73
2020/12/07 04:07:09;;;;;;;14.93;6.73;;;5.90;1.00;;;;;;5089156;28;20174;-73
2020/12/07 04:09:35;;;;;;;10.53;5.70;;;5.90;1.00;;;;;;5075182;28;20393;-73
2020/12/07 04:12:05;;;;;;;9.73;5.90;;;5.90;1.00;;;;;;5091745;28;20178;-76
2020/12/07 04:14:41;;;;;;;11.37;5.40;;;6.00;1.00;;;;;;5095228;28;20621;-76
2020/12/07 04:17:11;;;;;;;16.10;6.90;;;6.00;1.00;;;;;;5095534;28;20886;-76
2020/12/07 04:19:59;;;;;;;11.87;5.83;;;5.90;1.00;;;;;;5074386;28;20413;-76
2020/12/07 04:22:41;;;;;;;12.10;5.57;;;6.00;1.00;;;;;;5079348;28;20448;-76
2020/12/07 04:25:11;;;;;;;12.70;5.97;;;6.00;1.00;;;;;;5095303;28;20428;-76
2020/12/07 04:27:37;;;;;;;15.25;6.43;;;6.00;1.00;;;;;;5095582;28;20392;-74
2020/12/07 04:30:05;;;;;;;17.33;7.60;;;6.00;1.00;;;;;;5086656;28;20328;-73
2020/12/07 04:32:35;;;;;;;14.67;6.67;;;5.90;1.00;;;;;;5074663;28;20537;-74
2020/12/07 04:35:02;;;;;;;18.55;7.60;;;5.90;1.00;;;;;;5074708;28;20404;-74
2020/12/07 04:37:29;;;;;;;21.23;7.40;;;5.90;1.00;;;;;;5074446;28;20179;-74
2020/12/07 04:39:59;;;;;;;20.88;7.93;;;5.90;1.00;;;;;;5092104;28;20929;-74
2020/12/07 04:42:38;;;;;;;17.48;7.35;;;5.90;1.00;;;;;;5095198;28;20672;-74
2020/12/07 04:45:05;;;;;;;14.88;7.22;;;5.80;1.00;;;;;;5094752;28;20162;-74
2020/12/07 04:47:32;;;;;;;22.80;7.20;;;5.90;1.00;;;;;;5094477;28;20193;-74
2020/12/07 04:50:02;;;;;;;18.50;8.35;;;5.90;1.00;;;;;;5090350;28;20441;-73
2020/12/07 04:52:30;;;;;;;12.65;6.55;;;5.90;1.00;;;;;;5073953;28;20171;-74
2020/12/07 04:54:58;;;;;;;18.23;7.70;;;5.90;1.00;;;;;;5072850;28;20183;-74
2020/12/07 04:57:25;;;;;;;19.20;8.27;;;5.90;1.00;;;;;;5074634;28;20167;-74
2020/12/07 04:59:52;;;;;;;16.98;7.60;;;5.90;1.00;;;;;;5074152;28;20433;-73
2020/12/07 05:02:18;;;;;;;21.37;8.17;;;5.90;1.00;;;;;;5074984;28;20230;-73
2020/12/07 05:04:44;;;;;;;13.00;6.70;;;5.90;1.00;;;;;;5074461;28;20464;-73
2020/12/07 05:07:10;;;;;;;15.38;7.35;;;6.00;1.00;;;;;;5074031;28;20843;-73
2020/12/07 05:09:37;;;;;;;13.00;6.90;;;5.90;1.00;;;;;;5083147;28;20213;-73
2020/12/07 05:12:13;;;;;;;17.30;7.43;;;5.90;1.00;;;;;;5084107;28;20193;-76
2020/12/07 05:14:38;;;;;;;19.55;7.68;;;5.90;1.00;;;;;;5074155;28;20151;-76
2020/12/07 05:17:15;;;;;;;17.13;7.10;;;5.90;1.00;;;;;;5074490;28;20170;-76
2020/12/07 05:19:59;;;;;;;18.77;7.17;;;5.90;1.00;;;;;;5073963;28;20611;-76
2020/12/07 05:22:41;;;;;;;20.67;7.43;;;5.90;1.00;;;;;;5076075;28;20483;-76
2020/12/07 05:25:11;;;;;;;15.43;7.70;;;5.90;1.00;;;;;;5074159;28;20378;-76
2020/12/07 05:27:44;;;;;;;15.20;6.93;;;5.90;1.00;;;;;;5088375;28;20637;-76
2020/12/07 05:30:33;;;;;;;18.95;7.35;;;5.90;1.00;;;;;;5092349;28;20450;-76
2020/12/07 05:33:15;;;;;;;16.60;7.57;;;5.90;1.00;;;;;;5085145;28;20168;-75
2020/12/07 05:35:51;;;;;;;17.45;7.60;;;5.90;1.00;;;;;;5073930;28;20170;-76
2020/12/07 05:38:35;;;;;;;18.60;7.47;;;5.80;1.00;;;;;;5073934;28;20166;-76
2020/12/07 05:41:11;;;;;;;18.38;8.20;;;5.90;1.00;;;;;;5074111;28;20212;-76
2020/12/07 05:43:42;;;;;;;15.65;7.35;;;5.90;1.00;;;;;;5080050;28;20208;-73
2020/12/07 05:46:12;;;;;;;14.45;7.57;;;5.90;1.00;;;;;;5088942;28;20187;-73
2020/12/07 05:48:43;;;;;;;17.80;7.30;;;5.90;1.00;;;;;;5086092;28;20193;-73
2020/12/07 05:51:13;;;;;;;20.02;7.80;;;5.90;1.00;;;;;;5077879;28;20478;-73
2020/12/07 05:53:40;;;;;;;16.70;7.60;;;5.80;1.00;;;;;;5076630;28;20217;-73
2020/12/07 05:56:08;;;;;;;22.27;8.07;;;5.80;1.00;;;;;;5073600;28;20412;-73
2020/12/07 05:58:53;;;;;;;18.75;7.43;;;5.80;1.00;;;;;;5074039;28;20498;-76
2020/12/07 06:01:43;;;;;;;16.25;7.97;;;5.80;1.00;;;;;;5084588;28;20162;-76
2020/12/07 06:04:11;;;;;;;15.07;7.70;;;5.80;1.00;;;;;;5087696;28;20429;-76
2020/12/07 06:06:44;;;;;;;16.98;7.80;;;5.70;1.00;;;;;;5077865;28;20382;-76
2020/12/07 06:09:37;;;;;;;17.98;7.90;;;5.70;1.00;;;;;;5078107;28;20230;-76
2020/12/07 06:12:08;;;;;;;19.42;8.13;;;5.70;1.00;;;;;;5078062;28;20564;-73
2020/12/07 06:14:37;;;;;;;21.48;8.00;;;5.60;1.00;;;;;;5077394;28;20282;-73
2020/12/07 06:17:03;;;;;;;19.98;9.00;;;5.70;1.00;;;;;;5077239;28;20169;-74
2020/12/07 06:19:32;;;;;;;18.20;7.30;;;5.70;1.00;;;;;;5087384;28;20269;-73
2020/12/07 06:22:02;;;;;;;19.50;7.40;;;5.70;1.00;;;;;;5089394;28;20248;-74
2020/12/07 06:24:39;;;;;;;17.98;8.40;;;5.70;1.00;;;;;;5077252;28;20611;-74
2020/12/07 06:27:07;;;;;;;21.77;9.50;;;5.70;1.00;;;;;;5077363;28;20505;-74
2020/12/07 06:29:33;;;;;;;24.50;9.38;;;5.60;1.00;;;;;;5086128;28;20178;-73
2020/12/07 06:32:00;;;;;;;26.93;8.80;;;5.60;1.00;;;;;;5087224;28;20189;-74
2020/12/07 06:34:44;;;;;;;33.85;9.48;;;5.60;1.00;;;;;;5078305;28;20524;-74
2020/12/07 06:37:12;;;;;;;18.75;7.90;;;5.60;1.00;;;;;;5096984;28;20186;-74
2020/12/07 06:39:58;;;;;;;19.90;8.52;;;5.60;1.00;;;;;;5097264;28;20194;-75
2020/12/07 06:42:48;;;;;;;25.63;9.83;;;5.60;1.00;;;;;;5093491;28;20735;-76
2020/12/07 06:45:31;;;;;;;21.13;9.23;;;5.60;1.00;;;;;;5078722;28;20412;-76
2020/12/07 06:48:10;;;;;;;21.88;8.55;;;5.70;1.00;;;;;;5093864;28;20723;-76
2020/12/07 06:50:45;;;;;;;19.58;9.52;;;5.70;1.00;;;;;;5076422;28;20186;-76
2020/12/07 06:53:36;;;;;;;20.27;9.30;;;5.60;1.00;;;;;;5076921;28;20162;-77
2020/12/07 06:56:29;;;;;;;21.98;9.70;;;5.70;1.00;;;;;;5082588;28;20423;-76
2020/12/07 06:59:09;;;;;;;27.42;9.55;;;5.70;1.00;;;;;;5091408;28;20183;-76
2020/12/07 07:04:59;;;;;;;20.90;9.60;;;5.70;1.00;;;;;;5076378;28;20198;-76
2020/12/07 07:07:30;;;;;;;22.23;7.90;;;5.60;1.00;;;;;;5083813;28;20447;-76
2020/12/07 07:10:35;;;;;;;17.80;8.67;;;5.60;1.00;;;;;;5096878;28;20198;-76
2020/12/07 07:13:12;;;;;;;28.42;8.80;;;5.60;1.00;;;;;;5076522;28;20413;-76
2020/12/07 07:16:11;;;;;;;19.73;8.38;;;5.60;1.00;;;;;;5091417;28;20239;-76
2020/12/07 07:18:37;;;;;;;16.23;6.93;;;5.50;1.00;;;;;;5096226;28;20170;-76
2020/12/07 07:30:13;;;;;;;20.75;8.82;;;5.70;1.00;;;;;;5084955;28;20239;-73
2020/12/07 07:32:41;;;;;;;23.10;9.98;;;5.60;1.00;;;;;;5086439;28;20178;-73
2020/12/07 07:35:13;;;;;;;24.42;9.82;;;5.70;1.00;;;;;;5093407;28;20167;-74
2020/12/07 07:37:47;;;;;;;30.40;9.90;;;5.70;1.00;;;;;;5091169;28;20565;-73
2020/12/07 07:40:17;;;;;;;21.65;9.65;;;5.70;1.00;;;;;;5075665;28;20391;-73
2020/12/07 07:42:56;;;;;;;22.88;10.27;;;5.80;1.00;;;;;;5075408;28;20509;-73
2020/12/07 07:45:24;;;;;;;27.83;10.35;;;5.80;1.00;;;;;;5075489;28;20267;-74
2020/12/07 07:48:05;;;;;;;23.27;10.02;;;5.80;1.00;;;;;;5075391;28;20477;-74
2020/12/07 08:15:55;;;;;;;19.45;9.10;;;5.80;1.00;;;;;;5053019;28;20456;-74
2020/12/07 08:18:31;;;;;;;21.80;9.47;;;5.90;1.00;;;;;;5052708;28;20164;-74
2020/12/07 08:21:01;;;;;;;23.60;10.00;;;5.90;1.00;;;;;;5059205;28;20187;-73
2020/12/07 08:23:36;;;;;;;22.67;9.55;;;5.90;1.00;;;;;;5049566;28;20515;-75
2020/12/07 08:26:03;;;;;;;28.40;12.03;;;5.90;1.00;;;;;;5050098;28;20164;-73
2020/12/07 08:28:37;;;;;;;24.03;9.60;;;5.80;1.00;;;;;;5048086;28;21044;-76
2020/12/07 08:31:09;;;;;;;24.52;10.90;;;5.90;1.00;;;;;;5044001;28;20461;-77
2020/12/07 08:33:38;;;;;;;21.98;9.45;;;5.90;1.00;;;;;;5049259;28;20176;-76
2020/12/07 08:36:05;;;;;;;26.17;10.27;;;6.00;1.00;;;;;;5043688;28;20218;-76
2020/12/07 08:38:40;;;;;;;22.40;9.60;;;6.00;1.00;;;;;;5050849;28;20920;-76
2020/12/07 08:41:17;;;;;;;19.17;9.23;;;6.00;1.00;;;;;;5044400;28;20434;-76
2020/12/07 08:43:45;;;;;;;30.40;10.20;;;6.10;1.00;;;;;;5046417;28;20313;-76
2020/12/07 08:46:17;;;;;;;19.13;8.90;;;6.00;1.00;;;;;;5051634;28;20178;-76
2020/12/07 08:48:43;;;;;;;18.02;8.65;;;6.00;1.00;;;;;;5065493;28;20605;-76
2020/12/07 08:51:09;;;;;;;19.23;9.17;;;5.90;1.00;;;;;;5083947;28;20225;-76
2020/12/07 08:53:35;;;;;;;18.17;9.30;;;6.00;1.00;;;;;;5091471;28;20177;-76
2020/12/07 08:56:12;;;;;;;21.40;9.20;;;6.00;1.00;;;;;;5076933;28;20175;-76
2020/12/07 08:58:41;;;;;;;35.45;9.30;;;6.10;1.00;;;;;;5073077;28;20517;-76
2020/12/07 09:01:08;;;;;;;20.80;9.38;;;6.10;1.00;;;;;;5076642;28;20557;-76
2020/12/07 09:03:35;;;;;;;22.90;8.97;;;6.10;1.00;;;;;;5077233;28;20794;-77
2020/12/07 09:06:04;;;;;;;19.80;8.90;;;6.30;1.00;;;;;;5093440;28;20899;-76
2020/12/07 09:08:31;;;;;;;23.17;9.40;;;6.30;1.00;;;;;;5093423;28;20397;-76
2020/12/07 09:10:57;;;;;;;30.93;9.50;;;6.30;1.00;;;;;;5093452;28;20391;-76
2020/12/07 09:13:24;;;;;;;24.87;9.27;;;6.40;1.00;;;;;;5090773;28;20425;-76
2020/12/07 09:15:50;;;;;;;18.77;9.00;;;6.40;1.00;;;;;;5073406;28;20413;-74
2020/12/07 09:18:15;;;;;;;21.13;9.80;;;6.50;1.00;;;;;;5073030;28;20778;-73
2020/12/07 09:20:41;;;;;;;18.10;8.33;;;6.60;1.00;;;;;;5079152;28;20970;-73
2020/12/07 09:23:06;;;;;;;26.50;10.17;;;6.60;1.00;;;;;;5072854;28;20226;-73
2020/12/07 09:25:32;;;;;;;20.70;9.87;;;6.70;1.00;;;;;;5074581;28;20171;-74
2020/12/07 09:27:58;;;;;;;20.47;8.70;;;6.80;1.00;;;;;;5093043;28;20158;-73
2020/12/07 09:30:23;;;;;;;21.67;8.83;;;6.80;1.00;;;;;;5080154;28;20634;-76
2020/12/07 09:32:49;;;;;;;20.90;9.20;;;6.80;1.00;;;;;;5091999;28;20191;-77
2020/12/07 09:35:15;;;;;;;17.73;8.03;;;6.90;1.00;;;;;;5090701;28;20178;-76
2020/12/07 09:37:41;;;;;;;21.70;8.47;;;6.90;1.00;;;;;;5081989;28;20194;-76
2020/12/07 09:40:10;;;;;;;16.37;7.60;;;6.90;1.00;;;;;;5092322;28;20393;-76
2020/12/07 09:42:36;;;;;;;19.77;8.43;;;7.00;1.00;;;;;;5081825;28;21027;-76
2020/12/07 09:45:04;;;;;;;13.57;7.20;;;9.90;1.00;;;;;;5082887;28;20439;-73
2020/12/07 09:47:30;;;;;;;22.63;8.23;;;7.00;1.00;;;;;;5090340;28;20404;-73
2020/12/07 09:49:56;;;;;;;18.97;7.77;;;7.00;1.00;;;;;;5092692;28;20427;-74
2020/12/07 09:52:21;;;;;;;15.63;7.50;;;7.00;1.00;;;;;;5092790;28;20487;-73
2020/12/07 09:54:47;;;;;;;17.57;7.10;;;7.10;1.00;;;;;;5092832;28;20163;-74
2020/12/07 09:57:14;;;;;;;15.17;7.30;;;7.20;1.00;;;;;;5092866;28;20296;-73
2020/12/07 09:59:40;;;;;;;19.67;7.90;;;7.30;1.00;;;;;;5092890;28;20428;-73
2020/12/07 10:02:05;;;;;;;20.63;7.77;;;7.30;1.00;;;;;;5072596;28;21045;-73
2020/12/07 10:04:32;;;;;;;26.07;8.50;;;7.20;1.00;;;;;;5072620;28;20755;-73
2020/12/07 10:06:58;;;;;;;19.10;7.60;;;7.30;1.00;;;;;;5071196;28;20171;-73
2020/12/07 10:09:23;;;;;;;17.13;7.07;;;7.20;1.00;;;;;;5072720;28;20409;-73
2020/12/07 10:11:49;;;;;;;19.30;7.73;;;7.30;1.00;;;;;;5080681;28;20205;-73
2020/12/07 10:14:15;;;;;;;19.17;7.47;;;7.30;1.00;;;;;;5076289;28;20406;-73
2020/12/07 10:16:42;;;;;;;22.30;9.43;;;7.40;1.00;;;;;;5075815;28;20526;-76
2020/12/07 10:19:08;;;;;;;16.27;7.90;;;7.40;1.00;;;;;;5092551;28;20151;-77
2020/12/07 10:21:33;;;;;;;19.60;7.50;;;7.40;1.00;;;;;;5092498;28;20393;-77
2020/12/07 10:23:59;;;;;;;15.40;7.50;;;7.40;1.00;;;;;;5092614;28;20541;-76
2020/12/07 10:26:25;;;;;;;21.83;7.60;;;7.40;1.00;;;;;;5076340;28;20163;-76
2020/12/07 10:28:52;;;;;;;16.63;7.10;;;7.50;1.00;;;;;;5074449;28;20428;-75
2020/12/07 10:31:21;;;;;;;17.73;8.00;;;7.50;1.00;;;;;;5086528;28;20777;-76
2020/12/07 10:33:48;;;;;;;16.47;7.20;;;7.50;1.00;;;;;;5072647;28;20758;-75
2020/12/07 10:36:19;;;;;;;18.73;7.83;;;7.50;1.00;;;;;;5072344;28;20424;-76
2020/12/07 10:38:45;;;;;;;14.40;6.60;;;7.50;1.00;;;;;;5072316;28;20389;-76
2020/12/07 10:41:13;;;;;;;18.20;8.20;;;7.60;1.00;;;;;;5072250;28;20451;-76
2020/12/07 10:43:41;;;;;;;16.17;7.20;;;7.70;1.00;;;;;;5071989;28;20493;-76
2020/12/07 10:46:07;;;;;;;16.00;7.73;;;7.70;1.00;;;;;;5071944;28;20497;-75
2020/12/07 10:48:32;;;;;;;12.07;5.93;;;7.80;1.00;;;;;;5072216;28;20881;-76
2020/12/07 10:50:58;;;;;;;12.63;6.57;;;7.80;1.00;;;;;;5072545;28;20400;-75
2020/12/07 10:53:24;;;;;;;13.90;7.03;;;7.80;1.00;;;;;;5075807;28;20232;-76
2020/12/07 10:55:50;;;;;;;13.70;6.63;;;8.00;1.00;;;;;;5075770;28;20170;-75
2020/12/07 10:58:17;;;;;;;13.63;6.20;;;7.90;1.00;;;;;;5075788;28;20397;-76
2020/12/07 11:00:42;;;;;;;13.97;6.43;;;7.80;1.00;;;;;;5075994;28;20447;-73
2020/12/07 11:03:08;;;;;;;11.97;6.27;;;7.80;1.00;;;;;;5075549;28;20453;-73
2020/12/07 11:05:34;;;;;;;12.50;6.10;;;7.70;1.00;;;;;;5079666;28;20162;-73
2020/12/07 11:08:01;;;;;;;12.30;6.10;;;7.70;1.00;;;;;;5095847;28;20146;-73
2020/12/07 11:10:27;;;;;;;16.73;8.00;;;7.70;1.00;;;;;;5096088;28;20393;-74
2020/12/07 11:13:04;;;;;;;16.13;7.33;;;7.80;1.00;;;;;;5095696;28;20817;-73
2020/12/07 11:15:29;;;;;;;18.07;7.00;;;8.00;1.00;;;;;;5095871;28;20475;-72
2020/12/07 11:17:55;;;;;;;14.27;6.60;;;8.10;1.00;;;;;;5095686;28;20556;-76
2020/12/07 11:20:21;;;;;;;16.80;7.20;;;8.10;1.00;;;;;;5112913;28;20173;-75
2020/12/07 11:22:46;;;;;;;26.50;8.00;;;8.20;1.00;;;;;;5115952;28;20197;-75
2020/12/07 11:25:12;;;;;;;13.17;6.77;;;8.20;1.00;;;;;;5081517;28;20678;-75
2020/12/07 11:27:38;;;;;;;12.17;6.57;;;8.20;1.00;;;;;;5086429;28;20650;-75
2020/12/07 11:30:04;;;;;;;13.37;6.70;;;8.20;1.00;;;;;;5074877;28;20201;-76
2020/12/07 11:32:30;;;;;;;17.60;6.20;;;8.30;1.00;;;;;;5074942;28;20459;-75
2020/12/07 11:34:56;;;;;;;17.97;6.57;;;8.40;1.00;;;;;;5082537;28;20195;-76
2020/12/07 11:37:22;;;;;;;13.40;6.20;;;8.40;1.00;;;;;;5109433;28;20411;-77
2020/12/07 11:42:45;;;;;;;15.53;7.37;;;8.40;1.00;;;;;;5059056;28;20677;-76
2020/12/07 11:45:11;;;;;;;12.23;6.40;;;8.40;1.00;;;;;;5058025;28;20438;-75
2020/12/07 11:47:37;;;;;;;15.60;7.47;;;8.30;1.00;;;;;;5055235;28;20450;-73
2020/12/07 11:50:04;;;;;;;14.10;7.20;;;8.30;1.00;;;;;;5050671;28;20515;-73
2020/12/07 11:52:30;;;;;;;16.90;6.20;;;8.30;1.00;;;;;;5039403;28;20180;-73
2020/12/07 11:54:56;;;;;;;17.50;7.40;;;10.20;1.00;;;;;;5042286;28;20461;-73
2020/12/07 11:57:21;;;;;;;13.90;7.07;;;8.20;1.00;;;;;;5052222;28;20168;-73
2020/12/07 11:59:47;;;;;;;14.93;6.70;;;8.30;1.00;;;;;;5044162;28;20199;-73
2020/12/07 12:02:13;;;;;;;14.17;6.47;;;8.20;1.00;;;;;;5036768;28;20207;-73
2020/12/07 12:04:38;;;;;;;19.40;7.07;;;8.10;1.00;;;;;;5036195;28;20175;-73
2020/12/07 12:07:07;;;;;;;18.13;7.43;;;8.10;1.00;;;;;;5052737;28;20218;-75
2020/12/07 12:10:17;;;;;;;14.33;7.17;;;8.10;1.00;;;;;;5050430;28;20179;-76
2020/12/07 12:12:53;;;;;;;14.63;7.53;;;8.10;1.00;;;;;;5052384;28;20430;-75
2020/12/07 12:15:29;;;;;;;13.17;6.80;;;8.00;1.00;;;;;;5033197;28;20445;-75
2020/12/07 12:17:55;;;;;;;15.60;6.50;;;7.80;1.00;;;;;;5033409;28;20399;-73
2020/12/07 12:20:21;;;;;;;15.37;7.30;;;7.80;1.00;;;;;;5066064;28;20475;-73
2020/12/07 12:22:46;;;;;;;15.77;7.00;;;7.80;1.00;;;;;;5084279;28;20212;-75
2020/12/07 12:25:17;;;;;;;17.03;6.13;;;7.80;1.00;;;;;;5076365;28;20175;-79
2020/12/07 12:27:53;;;;;;;11.17;6.17;;;8.00;1.00;;;;;;5074283;28;20175;-73
2020/12/07 12:30:19;;;;;;;17.10;7.03;;;8.00;1.00;;;;;;5074665;28;20472;-73
2020/12/07 12:32:45;;;;;;;29.53;14.20;;;8.30;1.00;;;;;;5078111;28;21807;-75
2020/12/07 12:35:11;;;;;;;16.03;7.73;;;8.70;1.00;;;;;;5093361;28;20190;-75
2020/12/07 12:37:41;;;;;;;127.20;54.77;;;8.70;1.00;;;;;;5080539;28;20194;-75
2020/12/07 12:40:23;;;;;;;19.50;8.00;;;8.90;1.00;;;;;;5074673;28;20404;-75
2020/12/07 12:42:53;;;;;;;39.43;16.60;;;8.90;1.00;;;;;;5074516;28;20436;-75
2020/12/07 12:45:23;;;;;;;25.80;11.70;;;8.90;1.00;;;;;;5074632;28;20860;-76
2020/12/07 12:47:49;;;;;;;30.60;15.40;;;9.00;1.00;;;;;;5074559;28;20417;-75
2020/12/07 12:50:14;;;;;;;20.20;8.87;;;9.00;1.00;;;;;;5077692;28;20441;-75
2020/12/07 12:52:44;;;;;;;14.53;7.30;;;9.10;1.00;;;;;;5082226;28;20178;-75
2020/12/07 12:55:29;;;;;;;14.53;7.13;;;9.00;1.00;;;;;;5092931;28;20700;-75
2020/12/07 12:57:55;;;;;;;25.07;10.23;;;9.10;1.00;;;;;;5094788;28;20450;-75
2020/12/07 13:00:23;;;;;;;25.47;11.57;;;9.30;1.00;;;;;;5094652;28;20462;-75
2020/12/07 13:03:00;;;;;;;138.33;51.50;;;9.50;1.00;;;;;;5094639;28;20792;-74
2020/12/07 13:05:26;;;;;;;39.80;17.93;;;9.70;1.00;;;;;;5094524;28;20388;-75
2020/12/07 13:08:17;;;;;;;49.20;20.47;;;9.90;1.00;;;;;;5094491;28;20409;-75
2020/12/07 13:11:00;;;;;;;51.90;18.27;;;10.00;1.00;;;;;;5094487;28;20388;-75
2020/12/07 13:13:37;;;;;;;38.33;15.63;;;10.10;1.00;;;;;;5093947;28;20400;-75
2020/12/07 13:16:47;;;;;;;34.63;14.00;;;10.20;1.00;;;;;;5074249;28;20496;-75
2020/12/07 13:19:24;;;;;;;12.70;6.50;;;10.20;1.00;;;;;;5088901;28;20515;-75
2020/12/07 13:22:04;;;;;;;18.37;9.60;;;10.40;1.00;;;;;;5099882;28;20447;-75
2020/12/07 13:24:54;;;;;;;11.60;5.50;;;10.20;1.00;;;;;;5094223;28;20492;-75
2020/12/07 13:30:06;;;;;;;8.93;5.03;;;9.70;1.00;;;;;;5094602;28;20858;-75
2020/12/07 13:32:33;;;;;;;7.77;4.90;;;9.70;1.00;;;;;;5091705;28;20409;-73
2020/12/07 13:35:01;;;;;;;11.20;5.80;;;9.80;1.00;;;;;;5074776;28;20397;-73
2020/12/07 13:37:30;;;;;;;7.00;4.90;;;9.70;1.00;;;;;;5079758;28;20444;-73
2020/12/07 13:39:56;;;;;;;11.73;7.40;;;9.80;1.00;;;;;;5088525;28;20460;-73
2020/12/07 13:42:24;;;;;;;18.97;10.47;;;10.00;1.00;;;;;;5093254;28;20454;-73
2020/12/07 13:44:49;;;;;;;13.30;6.27;;;10.00;1.00;;;;;;5087364;28;20409;-73
2020/12/07 13:47:15;;;;;;;12.83;7.03;;;10.00;1.00;;;;;;5073371;28;20409;-73
2020/12/07 13:49:41;;;;;;;16.27;8.13;;;10.00;1.00;;;;;;5073927;28;20742;-75
2020/12/07 13:52:18;;;;;;;15.47;7.10;;;10.00;1.00;;;;;;5073791;28;20167;-75
2020/12/07 13:54:43;;;;;;;23.43;11.20;;;9.90;1.00;;;;;;5073600;28;20253;-75
2020/12/07 13:57:14;;;;;;;9.43;5.60;;;9.80;1.00;;;;;;5078987;28;21015;-75
2020/12/07 13:59:40;;;;;;;12.20;5.70;;;9.90;1.00;;;;;;5085894;28;20173;-73